Time;durP1;ratioP1;P1;durP2;ratioP2;P2;SDS_P1;SDS_P2;PMS_P1;PMS_P2;Temp;Humidity;BMP_temperature;BMP_pressure;BME280_temperature;BME280_humidity;BME280_pressure;Samples;Min_cycle;Max_cycle;Signal;HPM_P1;HPM_P2
2021/01/27 00:02:24;;;;;;;8.52;4.90;;;;;;;0.42;54.72;101357.97;5038043;28;20029;-72
2021/01/27 00:04:49;;;;;;;9.45;4.28;;;;;;;0.32;54.94;101364.72;5050598;28;20122;-71
2021/01/27 00:07:15;;;;;;;11.35;5.72;;;;;;;0.12;55.57;101364.50;5041770;28;20478;-74
2021/01/27 00:09:40;;;;;;;14.18;6.10;;;;;;;0.15;55.81;101359.41;5025868;28;20040;-72
2021/01/27 00:12:06;;;;;;;10.30;5.55;;;;;;;0.46;54.76;101360.59;5040065;28;20151;-72
2021/01/27 00:14:31;;;;;;;16.55;6.20;;;;;;;0.38;54.88;101349.34;5038657;28;20138;-72
2021/01/27 00:16:57;;;;;;;12.45;6.05;;;;;;;0.07;55.89;101355.88;5040581;28;20025;-72
2021/01/27 00:19:22;;;;;;;10.77;6.38;;;;;;;0.46;54.60;101364.88;5020629;28;20690;-72
2021/01/27 00:21:48;;;;;;;15.25;7.72;;;;;;;0.42;54.92;101366.56;5037865;28;20024;-72
2021/01/27 00:24:13;;;;;;;11.23;6.57;;;;;;;0.29;55.17;101367.28;5021095;28;20372;-72
2021/01/27 00:26:39;;;;;;;11.40;6.43;;;;;;;0.56;54.76;101365.81;5042375;28;20025;-72
2021/01/27 00:29:04;;;;;;;11.52;6.95;;;;;;;0.53;54.48;101361.50;5038648;28;20430;-72
2021/01/27 00:31:30;;;;;;;11.40;6.28;;;;;;;0.06;55.96;101357.59;5042847;28;20037;-72
2021/01/27 00:33:55;;;;;;;22.92;7.57;;;;;;;0.46;55.23;101358.03;5043335;28;20036;-72
2021/01/27 00:36:20;;;;;;;9.40;5.88;;;;;;;0.44;55.11;101356.28;5046836;28;20090;-72
2021/01/27 00:38:46;;;;;;;15.40;6.88;;;;;;;0.17;55.37;101351.72;5045614;28;20055;-72
2021/01/27 00:41:11;;;;;;;15.63;6.78;;;;;;;0.42;55.21;101365.69;5040343;28;20029;-72
2021/01/27 00:43:37;;;;;;;16.52;7.13;;;;;;;0.82;54.29;101343.75;5037434;28;20520;-72
2021/01/27 00:46:03;;;;;;;12.20;7.45;;;;;;;0.31;55.55;101346.72;5040871;28;20048;-72
2021/01/27 00:48:29;;;;;;;14.57;8.02;;;;;;;0.57;54.74;101341.81;5042492;28;20036;-72
2021/01/27 00:50:54;;;;;;;15.98;7.20;;;;;;;0.69;54.45;101337.63;5039282;28;20025;-72
2021/01/27 00:53:23;;;;;;;14.73;7.70;;;;;;;0.21;55.95;101338.91;5041486;28;20489;-72
2021/01/27 00:55:49;;;;;;;14.20;7.82;;;;;;;0.77;54.43;101331.69;5041716;28;20035;-72
2021/01/27 00:58:16;;;;;;;23.17;8.50;;;;;;;0.84;54.24;101328.34;5043968;28;20033;-72
2021/01/27 01:00:46;;;;;;;13.88;9.32;;;;;;;0.54;55.02;101321.22;5029260;28;20041;-72
2021/01/27 01:03:20;;;;;;;16.35;7.35;;;;;;;0.74;54.99;101323.97;5047107;28;20039;-72
2021/01/27 01:05:46;;;;;;;16.45;7.38;;;;;;;0.53;55.03;101330.66;5045642;28;20029;-72
2021/01/27 01:08:15;;;;;;;16.90;8.52;;;;;;;0.15;56.59;101327.72;5042526;28;20041;-72
2021/01/27 01:10:49;;;;;;;21.23;8.43;;;;;;;0.61;54.77;101336.72;5040146;28;20143;-72
2021/01/27 01:13:18;;;;;;;16.80;8.88;;;;;;;0.83;54.42;101331.75;5039924;28;20171;-72
2021/01/27 01:15:43;;;;;;;25.95;9.70;;;;;;;0.88;53.76;101325.81;5041573;28;20426;-72
2021/01/27 01:18:10;;;;;;;18.10;8.35;;;;;;;0.78;54.54;101325.72;5023078;28;20041;-71
2021/01/27 01:20:35;;;;;;;14.27;7.82;;;;;;;1.01;53.91;101319.00;5046499;28;20079;-72
2021/01/27 01:23:02;;;;;;;18.25;8.88;;;;;;;0.65;54.74;101330.75;5048482;28;20537;-72
2021/01/27 01:25:30;;;;;;;18.08;8.40;;;;;;;0.44;55.13;101331.44;5046615;28;20511;-72
2021/01/27 01:27:56;;;;;;;24.08;9.35;;;;;;;0.15;55.92;101332.84;5043679;28;20055;-72
2021/01/27 01:30:25;;;;;;;16.38;8.93;;;;;;;0.53;55.03;101320.38;5038364;28;20035;-72
2021/01/27 01:32:54;;;;;;;17.10;10.05;;;;;;;0.06;56.63;101323.34;5040744;28;20044;-72
2021/01/27 01:35:21;;;;;;;15.65;8.68;;;;;;;0.05;56.79;101321.59;5038795;28;20108;-73
2021/01/27 01:37:46;;;;;;;14.35;8.52;;;;;;;0.69;54.91;101313.63;5025394;28;20449;-71
2021/01/27 01:40:16;;;;;;;18.38;9.77;;;;;;;0.29;56.37;101315.84;5045930;28;20037;-72
2021/01/27 01:42:42;;;;;;;18.48;9.73;;;;;;;0.60;55.12;101317.00;5046859;28;20044;-72
2021/01/27 01:45:26;;;;;;;19.38;10.15;;;;;;;0.68;55.35;101305.06;5029747;28;20494;-72
2021/01/27 01:47:54;;;;;;;18.08;9.80;;;;;;;0.63;55.49;101299.00;5046192;28;20025;-72
2021/01/27 01:50:20;;;;;;;23.88;10.15;;;;;;;0.86;54.82;101303.47;5047459;28;20085;-72
2021/01/27 01:52:45;;;;;;;19.60;11.02;;;;;;;0.68;55.20;101302.50;5040632;28;20037;-72
2021/01/27 01:55:14;;;;;;;18.88;9.68;;;;;;;0.88;54.50;101301.75;5041982;28;20048;-72
2021/01/27 01:57:42;;;;;;;17.52;10.80;;;;;;;0.70;54.90;101302.47;5032938;28;20120;-72
2021/01/27 02:00:10;;;;;;;20.58;11.43;;;;;;;0.78;54.48;101299.97;5045302;28;20058;-72
2021/01/27 02:02:39;;;;;;;21.63;10.27;;;;;;;0.77;55.13;101300.81;5043906;28;20510;-72
2021/01/27 02:05:13;;;;;;;22.60;11.63;;;;;;;0.78;54.77;101289.69;5045256;28;20044;-72
2021/01/27 02:07:38;;;;;;;22.90;11.38;;;;;;;1.04;54.31;101284.72;5039851;28;20040;-72
2021/01/27 02:10:08;;;;;;;15.70;10.63;;;;;;;1.06;53.75;101286.44;5015387;28;20041;-72
2021/01/27 02:12:43;;;;;;;21.45;11.80;;;;;;;0.81;54.55;101287.13;5042072;28;20052;-72
2021/01/27 02:15:35;;;;;;;20.08;11.82;;;;;;;0.89;54.71;101277.75;5046641;28;20078;-72
2021/01/27 02:18:13;;;;;;;18.02;11.02;;;;;;;0.62;55.41;101274.13;5036259;28;20037;-72
2021/01/27 02:21:24;;;;;;;21.50;11.68;;;;;;;0.96;54.86;101273.50;5026883;28;20044;-72
2021/01/27 02:24:14;;;;;;;25.95;12.27;;;;;;;0.89;54.53;101273.47;4978916;28;20044;-74
2021/01/27 02:27:11;;;;;;;22.27;11.65;;;;;;;0.78;55.15;101269.09;5042628;28;20032;-72
2021/01/27 02:30:12;;;;;;;25.52;13.60;;;;;;;0.78;55.17;101269.09;5039392;28;20036;-72
2021/01/27 02:32:43;;;;;;;22.52;11.77;;;;;;;0.52;55.88;101267.19;5044976;28;20033;-72
2021/01/27 02:35:18;;;;;;;21.45;12.52;;;;;;;0.51;56.03;101264.63;5046673;28;20025;-72
2021/01/27 02:37:59;;;;;;;26.48;13.38;;;;;;;0.09;57.57;101259.09;5041846;28;20067;-72
2021/01/27 02:40:35;;;;;;;27.60;14.25;;;;;;;0.65;55.84;101258.69;5022771;28;20040;-72
2021/01/27 02:43:31;;;;;;;24.15;13.07;;;;;;;0.37;56.76;101255.06;5045238;28;20422;-72
2021/01/27 02:46:20;;;;;;;25.30;13.18;;;;;;;0.18;56.36;101243.75;5038600;28;20047;-72
2021/01/27 02:49:09;;;;;;;25.67;14.07;;;;;;;0.93;55.18;101238.31;5046104;28;20032;-72
2021/01/27 02:51:50;;;;;;;24.30;13.10;;;;;;;0.47;56.29;101240.56;5044450;28;20045;-72
2021/01/27 02:54:27;;;;;;;27.73;14.65;;;;;;;0.67;55.41;101241.56;5046463;28;20033;-72
2021/01/27 02:57:07;;;;;;;22.08;13.15;;;;;;;0.30;56.56;101237.00;5046124;28;20033;-72
2021/01/27 02:59:46;;;;;;;23.95;13.80;;;;;;;0.20;56.39;101238.63;5043155;28;20044;-72
2021/01/27 03:02:17;;;;;;;26.48;13.25;;;;;;;0.47;55.84;101238.84;5045060;28;20051;-72
2021/01/27 03:04:52;;;;;;;28.30;15.48;;;;;;;-0.24;58.33;101234.78;5039745;28;20391;-72
2021/01/27 03:07:21;;;;;;;23.77;13.65;;;;;;;0.06;57.25;101235.94;5032314;28;20036;-72
2021/01/27 03:09:59;;;;;;;26.17;14.15;;;;;;;0.90;55.01;101225.41;5040149;28;20040;-73
2021/01/27 03:12:25;;;;;;;25.75;14.13;;;;;;;0.05;57.36;101223.94;5025917;28;20403;-72
2021/01/27 03:14:50;;;;;;;24.52;13.38;;;;;;;0.26;56.51;101221.56;5042043;28;20097;-71
2021/01/27 03:17:19;;;;;;;27.92;16.00;;;;;;;0.58;55.61;101223.50;5031267;28;20029;-72
2021/01/27 03:19:55;;;;;;;25.50;15.50;;;;;;;0.38;56.37;101218.22;5038476;28;20036;-72
2021/01/27 03:22:24;;;;;;;27.35;15.07;;;;;;;0.79;55.20;101220.22;5036860;28;20040;-71
2021/01/27 03:24:56;;;;;;;32.08;15.05;;;;;;;0.33;56.26;101226.75;5045183;28;20029;-72
2021/01/27 03:27:26;;;;;;;25.73;14.25;;;;;;;0.34;56.71;101223.31;5043934;28;20031;-72
2021/01/27 03:29:56;;;;;;;30.73;15.50;;;;;;;0.27;56.50;101214.69;5039217;28;20037;-72
2021/01/27 03:32:44;;;;;;;29.58;15.43;;;;;;;0.64;55.60;101210.69;5043899;28;20402;-72
2021/01/27 03:35:21;;;;;;;27.98;15.43;;;;;;;0.26;56.28;101211.28;5039692;28;20033;-72
2021/01/27 03:37:56;;;;;;;22.67;13.55;;;;;;;0.61;55.34;101213.25;5037633;28;20052;-72
2021/01/27 03:40:23;;;;;;;27.67;16.17;;;;;;;0.82;55.08;101211.66;5059099;28;20065;-72
2021/01/27 03:43:04;;;;;;;29.45;13.90;;;;;;;0.80;55.03;101209.06;5039365;28;20113;-72
2021/01/27 03:45:34;;;;;;;33.37;14.87;;;;;;;0.34;56.51;101215.59;5042065;28;20029;-72
2021/01/27 03:48:41;;;;;;;26.65;14.60;;;;;;;0.54;55.90;101206.31;5041677;28;20029;-72
2021/01/27 03:51:11;;;;;;;25.20;15.10;;;;;;;0.76;54.90;101214.19;5021771;28;20049;-72
2021/01/27 03:53:37;;;;;;;30.40;15.18;;;;;;;0.84;55.05;101202.25;5043479;28;20886;-73
2021/01/27 03:56:16;;;;;;;29.33;15.50;;;;;;;0.43;55.77;101200.25;5045659;28;20029;-72
2021/01/27 03:58:45;;;;;;;27.00;14.38;;;;;;;0.58;55.06;101195.22;5024825;28;20032;-72
2021/01/27 04:01:16;;;;;;;24.42;14.45;;;;;;;0.35;55.62;101192.47;5049700;28;20530;-73
2021/01/27 04:03:42;;;;;;;30.20;15.07;;;;;;;0.63;55.26;101192.66;5047790;28;20029;-72
2021/01/27 04:06:09;;;;;;;31.52;14.18;;;;;;;0.79;54.60;101188.47;5043008;28;20402;-72
2021/01/27 04:08:36;;;;;;;24.20;12.82;;;;;;;0.32;55.31;101199.31;5047261;28;20025;-73
2021/01/27 04:11:02;;;;;;;27.50;14.77;;;;;;;0.73;54.61;101193.59;5046795;28;20057;-72
2021/01/27 04:13:29;;;;;;;29.10;14.90;;;;;;;0.36;55.60;101193.34;5048951;28;20033;-72
2021/01/27 04:15:55;;;;;;;26.77;14.18;;;;;;;0.68;54.41;101191.84;5043196;28;20044;-72
2021/01/27 04:18:21;;;;;;;27.38;14.88;;;;;;;1.05;53.53;101191.19;5039502;28;20080;-72
2021/01/27 04:20:46;;;;;;;24.55;14.50;;;;;;;0.81;53.73;101179.91;5050091;28;20122;-74
2021/01/27 04:23:12;;;;;;;32.08;13.82;;;;;;;0.27;55.51;101176.97;5048140;28;20033;-73
2021/01/27 04:25:38;;;;;;;24.63;13.80;;;;;;;0.95;53.28;101171.38;5030675;28;20040;-72
2021/01/27 04:28:04;;;;;;;25.15;13.68;;;;;;;1.26;52.29;101164.66;5030980;28;20036;-72
2021/01/27 04:30:32;;;;;;;20.48;13.13;;;;;;;0.65;53.97;101165.25;5047126;28;20595;-72
2021/01/27 04:33:07;;;;;;;24.33;12.15;;;;;;;1.30;52.30;101156.09;5047267;28;20041;-72
2021/01/27 04:35:32;;;;;;;25.23;13.93;;;;;;;1.36;52.24;101153.53;5047394;28;20040;-72
2021/01/27 04:37:59;;;;;;;24.40;13.63;;;;;;;1.43;51.78;101149.28;5036463;28;20568;-74
2021/01/27 04:40:27;;;;;;;23.90;12.23;;;;;;;1.30;51.90;101146.66;5040107;28;20029;-71
2021/01/27 04:42:53;;;;;;;23.83;12.73;;;;;;;1.37;51.79;101147.50;5040451;28;20485;-72
2021/01/27 04:45:20;;;;;;;26.13;12.65;;;;;;;1.22;51.99;101144.91;5052402;28;20580;-72
2021/01/27 04:48:09;;;;;;;21.92;12.18;;;;;;;1.30;52.18;101141.50;5022705;28;20025;-72
2021/01/27 04:50:45;;;;;;;22.27;13.55;;;;;;;1.31;51.54;101138.06;5047742;28;20039;-72
2021/01/27 04:53:16;;;;;;;18.60;13.00;;;;;;;1.37;51.56;101121.75;5040557;28;20040;-72
2021/01/27 04:55:45;;;;;;;23.35;13.07;;;;;;;1.04;52.24;101118.25;5041728;28;20087;-72
2021/01/27 04:58:13;;;;;;;25.38;11.52;;;;;;;0.97;52.19;101110.47;5047263;28;20041;-72
2021/01/27 05:01:03;;;;;;;22.02;11.88;;;;;;;1.15;51.97;101107.13;5047664;28;20106;-72
2021/01/27 05:03:53;;;;;;;22.40;12.57;;;;;;;1.10;51.84;101102.84;5047923;28;20044;-72
2021/01/27 05:06:24;;;;;;;24.60;11.68;;;;;;;0.73;52.95;101095.84;5030835;28;20036;-71
2021/01/27 05:09:02;;;;;;;21.52;12.70;;;;;;;0.69;53.14;101089.81;5041766;28;20111;-72
2021/01/27 05:11:29;;;;;;;23.17;13.20;;;;;;;0.75;52.72;101086.38;5047151;28;20445;-72
2021/01/27 05:13:57;;;;;;;22.67;12.95;;;;;;;0.32;53.73;101088.75;5046508;28;20025;-72
2021/01/27 05:16:27;;;;;;;24.27;11.88;;;;;;;0.82;52.50;101091.56;5030048;28;20033;-72
2021/01/27 05:18:56;;;;;;;23.60;12.65;;;;;;;0.68;52.85;101088.94;5026722;28;20190;-72
2021/01/27 05:21:31;;;;;;;26.88;12.55;;;;;;;0.79;52.57;101095.84;5046213;28;20037;-72
2021/01/27 05:23:58;;;;;;;29.58;12.80;;;;;;;0.93;51.94;101098.50;5029385;28;20037;-72
2021/01/27 05:26:32;;;;;;;23.13;11.77;;;;;;;0.95;51.67;101092.47;5029492;28;20096;-72
2021/01/27 05:29:11;;;;;;;23.20;11.52;;;;;;;0.98;51.65;101102.78;5030026;28;20033;-72
2021/01/27 05:31:55;;;;;;;23.40;11.77;;;;;;;0.88;52.08;101099.31;5045134;28;20074;-72
2021/01/27 05:34:37;;;;;;;22.08;11.55;;;;;;;1.00;51.71;101101.06;5047358;28;20406;-72
2021/01/27 05:37:27;;;;;;;20.73;12.13;;;;;;;0.85;52.27;101091.56;5043656;28;20028;-72
2021/01/27 05:40:13;;;;;;;24.42;11.93;;;;;;;0.78;52.13;101091.56;5044402;28;20048;-72
2021/01/27 05:42:39;;;;;;;27.92;13.20;;;;;;;0.64;52.57;101092.34;5057377;28;20040;-72
2021/01/27 05:45:36;;;;;;;20.15;12.40;;;;;;;0.83;51.85;101088.13;5027874;28;20033;-72
2021/01/27 05:48:26;;;;;;;23.73;12.40;;;;;;;1.01;51.65;101076.19;5039432;28;20521;-72
2021/01/27 05:51:15;;;;;;;22.75;12.68;;;;;;;0.36;53.40;101080.19;5025694;28;20056;-72
2021/01/27 05:53:41;;;;;;;22.48;11.60;;;;;;;0.33;53.38;101069.91;5047276;28;20122;-72
2021/01/27 05:56:17;;;;;;;21.00;11.25;;;;;;;0.82;52.08;101072.72;5046526;28;20035;-72
2021/01/27 05:59:06;;;;;;;21.67;11.38;;;;;;;0.58;52.60;101074.31;5042143;28;20049;-72
2021/01/27 06:01:46;;;;;;;20.13;11.65;;;;;;;0.46;52.57;101077.69;5049177;28;20029;-72
2021/01/27 06:04:11;;;;;;;21.63;11.48;;;;;;;0.83;51.73;101066.69;5051135;28;20033;-72
2021/01/27 06:06:54;;;;;;;27.23;11.93;;;;;;;0.90;51.62;101063.28;5053846;28;20055;-72
2021/01/27 06:09:42;;;;;;;24.60;11.35;;;;;;;0.94;51.76;101061.59;5058993;28;20032;-72
2021/01/27 06:12:25;;;;;;;19.48;10.35;;;;;;;0.97;51.51;101059.00;5072417;28;20040;-72
2021/01/27 06:15:02;;;;;;;20.85;10.45;;;;;;;0.82;51.58;101057.28;5060804;28;20060;-71
2021/01/27 06:17:30;;;;;;;19.25;10.40;;;;;;;0.74;51.98;101053.78;5051283;28;20479;-72
2021/01/27 06:20:02;;;;;;;22.15;9.98;;;;;;;1.05;50.98;101050.44;5052005;28;20037;-72
2021/01/27 06:23:06;;;;;;;16.77;9.98;;;;;;;0.79;51.80;101052.97;5054146;28;20029;-72
2021/01/27 06:25:38;;;;;;;21.85;10.02;;;;;;;-0.18;53.51;101052.44;5046298;28;20478;-72
2021/01/27 06:28:28;;;;;;;19.55;8.80;;;;;;;0.28;52.94;101052.75;5043953;28;20090;-72
2021/01/27 06:31:09;;;;;;;14.93;9.05;;;;;;;0.07;53.31;101048.31;5024078;28;20032;-72
2021/01/27 06:33:49;;;;;;;18.98;8.77;;;;;;;0.54;51.97;101044.28;5047302;28;20037;-72
2021/01/27 06:36:45;;;;;;;12.18;7.35;;;;;;;0.93;51.12;101034.16;5045757;28;20521;-72
2021/01/27 06:39:45;;;;;;;15.98;8.52;;;;;;;0.85;51.31;101036.69;5041652;28;20083;-72
2021/01/27 06:42:48;;;;;;;18.13;8.48;;;;;;;1.07;50.59;101033.28;5045885;28;20040;-72
2021/01/27 06:45:40;;;;;;;16.98;7.80;;;;;;;0.74;51.35;101035.78;5043147;28;20045;-72
2021/01/27 06:48:31;;;;;;;17.20;7.05;;;;;;;0.85;51.14;101040.09;5038421;28;20439;-73
2021/01/27 06:51:23;;;;;;;12.75;6.80;;;;;;;0.69;51.33;101033.19;5042946;28;20525;-72
2021/01/27 06:53:57;;;;;;;16.45;8.02;;;;;;;0.97;50.60;101033.28;5040165;28;20061;-72
2021/01/27 06:56:35;;;;;;;15.60;7.57;;;;;;;0.72;51.44;101033.19;5047190;28;20128;-72
2021/01/27 06:59:22;;;;;;;13.50;8.73;;;;;;;0.72;51.21;101027.19;5043115;28;20453;-71
2021/01/27 07:02:12;;;;;;;14.57;8.38;;;;;;;0.64;52.09;101027.19;5043951;28;20025;-72
2021/01/27 07:05:09;;;;;;;14.00;7.32;;;;;;;0.72;51.93;101029.78;5038615;28;20614;-72
2021/01/27 07:07:46;;;;;;;16.48;7.90;;;;;;;0.49;52.38;101025.41;5044987;28;20047;-71
2021/01/27 07:10:26;;;;;;;12.65;7.68;;;;;;;0.71;51.89;101030.63;5046783;28;20470;-71
2021/01/27 07:13:06;;;;;;;15.38;7.75;;;;;;;0.35;52.73;101029.63;5046746;28;20110;-72
2021/01/27 07:15:58;;;;;;;13.73;7.43;;;;;;;-0.04;53.72;101029.41;5040178;28;20029;-72
2021/01/27 07:18:54;;;;;;;16.10;6.55;;;;;;;0.59;52.28;101019.47;5046108;28;20036;-72
2021/01/27 07:21:30;;;;;;;11.20;6.15;;;;;;;0.21;53.08;101029.53;5037961;28;20033;-71
2021/01/27 07:24:11;;;;;;;13.05;7.72;;;;;;;0.11;53.79;101028.63;5039917;28;20506;-71
2021/01/27 07:26:59;;;;;;;11.80;6.28;;;;;;;0.62;52.60;101022.03;5055927;28;20081;-72
2021/01/27 07:29:36;;;;;;;10.68;7.10;;;;;;;0.49;52.86;101027.97;5026900;28;20475;-73
2021/01/27 07:32:08;;;;;;;14.77;7.10;;;;;;;-0.32;55.08;101025.78;5045933;28;20394;-72
2021/01/27 07:34:53;;;;;;;16.42;8.07;;;;;;;0.47;52.79;101016.81;5041623;28;20040;-72
2021/01/27 07:37:32;;;;;;;11.93;6.82;;;;;;;0.13;53.77;101019.22;5046419;28;20135;-73
2021/01/27 07:40:05;;;;;;;12.10;6.95;;;;;;;0.59;52.90;101011.75;5046442;28;20033;-73
2021/01/27 07:42:40;;;;;;;10.15;6.60;;;;;;;0.28;53.53;101006.47;5043588;28;20047;-73
2021/01/27 07:45:13;;;;;;;13.73;6.90;;;;;;;0.69;52.62;101008.31;5048787;28;20098;-73
2021/01/27 07:47:55;;;;;;;13.52;7.22;;;;;;;0.60;52.94;101002.31;5037934;28;20029;-71
2021/01/27 07:50:23;;;;;;;15.15;7.32;;;;;;;0.59;52.78;101014.31;5049251;28;20238;-72
2021/01/27 07:53:08;;;;;;;12.43;6.47;;;;;;;0.63;52.71;101020.31;5026872;28;20073;-72
2021/01/27 07:55:49;;;;;;;11.60;7.43;;;;;;;0.33;53.60;101029.63;5045258;28;20071;-72
2021/01/27 07:58:28;;;;;;;10.80;5.60;;;;;;;0.32;53.96;101021.88;5026621;28;20128;-71
2021/01/27 08:01:03;;;;;;;12.23;7.75;;;;;;;0.52;53.30;101029.69;5045019;28;20410;-72
2021/01/27 08:03:59;;;;;;;13.85;7.10;;;;;;;0.40;53.43;101026.22;5042878;28;20036;-72
2021/01/27 08:06:28;;;;;;;13.55;7.20;;;;;;;0.36;53.70;101013.34;5039731;28;20060;-72
2021/01/27 08:09:00;;;;;;;14.15;8.20;;;;;;;0.42;53.60;101003.09;5029905;28;20202;-73
2021/01/27 08:11:44;;;;;;;12.40;6.97;;;;;;;0.26;54.31;100997.88;5047416;28;20490;-74
2021/01/27 08:14:14;;;;;;;13.25;7.70;;;;;;;0.39;53.88;100992.78;5046305;28;20043;-73
2021/01/27 08:16:42;;;;;;;13.23;8.07;;;;;;;0.32;53.89;100985.91;5030179;28;20024;-72
2021/01/27 08:19:11;;;;;;;16.60;8.02;;;;;;;0.28;53.80;100978.19;5047315;28;20037;-73
2021/01/27 08:21:51;;;;;;;14.10;8.52;;;;;;;-0.21;55.81;100967.66;5047793;28;20033;-72
2021/01/27 08:24:37;;;;;;;17.45;7.72;;;;;;;-0.67;56.88;100959.59;5048161;28;20892;-72
2021/01/27 08:27:16;;;;;;;14.75;8.35;;;;;;;-1.24;58.39;100956.50;5030886;28;20039;-72
2021/01/27 08:29:54;;;;;;;14.63;8.70;;;;;;;-0.35;56.34;100933.28;5047028;28;20051;-72
2021/01/27 08:32:34;;;;;;;14.70;7.40;;;;;;;-0.35;56.27;100931.59;5030407;28;20120;-72
2021/01/27 08:35:04;;;;;;;14.63;8.55;;;;;;;-0.53;56.85;100931.47;5063029;28;20028;-72
2021/01/27 08:37:33;;;;;;;15.93;9.57;;;;;;;-0.44;56.32;100930.66;5046791;28;20808;-72
2021/01/27 08:40:20;;;;;;;15.00;7.78;;;;;;;-0.51;56.61;100927.19;5046295;28;20041;-72
2021/01/27 08:42:51;;;;;;;17.10;8.50;;;;;;;-0.01;55.17;100925.78;5020310;28;20051;-72
2021/01/27 08:45:23;;;;;;;15.80;7.90;;;;;;;-0.79;57.30;100923.59;5047431;28;20425;-72
2021/01/27 08:47:53;;;;;;;11.73;7.00;;;;;;;-0.48;56.46;100919.53;5046783;28;20028;-72
2021/01/27 08:50:49;;;;;;;11.63;8.02;;;;;;;-0.50;56.80;100922.91;5049200;28;20112;-73
2021/01/27 08:53:14;;;;;;;15.05;8.02;;;;;;;-0.52;56.61;100922.06;5045778;28;20151;-72
2021/01/27 08:55:46;;;;;;;13.70;7.03;;;;;;;-0.49;56.88;100906.69;5045272;28;20036;-72
2021/01/27 08:58:25;;;;;;;12.30;7.70;;;;;;;-0.73;57.80;100917.63;5041435;28;20068;-71
2021/01/27 09:01:04;;;;;;;13.57;7.43;;;;;;;-0.26;56.30;100923.09;5046661;28;20510;-71
2021/01/27 09:03:45;;;;;;;14.98;7.93;;;;;;;-0.01;55.93;100926.66;5042490;28;20033;-72
2021/01/27 09:06:29;;;;;;;12.77;6.67;;;;;;;0.04;55.30;100939.50;5042987;28;20779;-74
2021/01/27 09:09:21;;;;;;;22.25;12.05;;;;;;;0.17;54.83;100949.00;5039100;28;20457;-71
2021/01/27 09:11:47;;;;;;;14.55;6.93;;;;;;;0.07;55.02;100942.09;5044556;28;20044;-73
2021/01/27 09:14:16;;;;;;;10.90;7.35;;;;;;;-0.10;55.38;100946.28;5044273;28;20029;-71
2021/01/27 09:16:43;;;;;;;11.70;7.13;;;;;;;-0.45;56.09;100942.66;5042763;28;20030;-72
2021/01/27 09:19:15;;;;;;;13.05;7.03;;;;;;;-0.05;55.51;100949.75;5021886;28;20057;-71
2021/01/27 09:21:42;;;;;;;11.50;6.30;;;;;;;0.59;54.33;100944.88;5046111;28;20044;-72
2021/01/27 09:24:20;;;;;;;9.52;5.90;;;;;;;0.58;54.19;100950.84;5047158;28;20867;-71
2021/01/27 09:26:50;;;;;;;10.18;6.22;;;;;;;0.20;54.64;100954.13;5046282;28;20021;-71
2021/01/27 09:29:20;;;;;;;13.25;6.28;;;;;;;0.18;54.87;100953.28;5045564;28;20047;-71
2021/01/27 09:31:46;;;;;;;12.85;5.88;;;;;;;0.48;54.24;100961.97;5047002;28;20501;-72
2021/01/27 09:34:16;;;;;;;10.77;6.50;;;;;;;0.33;54.61;100956.78;5026015;28;20122;-72
2021/01/27 09:36:44;;;;;;;8.82;6.40;;;;;;;0.17;55.33;100956.72;5046536;28;20039;-73
2021/01/27 09:39:10;;;;;;;10.70;6.15;;;;;;;0.48;54.06;100952.53;5041720;28;20072;-72
2021/01/27 09:41:36;;;;;;;8.10;5.07;;;;;;;0.68;53.67;100965.47;5047939;28;20054;-72
2021/01/27 09:44:03;;;;;;;11.80;6.20;;;;;;;0.76;53.91;100962.88;5027082;28;20666;-72
2021/01/27 09:46:36;;;;;;;10.23;5.47;;;;;;;0.87;53.36;100957.78;5045479;28;20139;-72
2021/01/27 09:49:06;;;;;;;9.77;6.45;;;;;;;1.06;52.91;100967.25;5044466;28;20032;-73
2021/01/27 09:51:32;;;;;;;11.02;6.93;;;;;;;0.59;54.49;100962.88;5039183;28;20035;-73
2021/01/27 09:54:00;;;;;;;9.43;5.93;;;;;;;0.86;53.67;100971.50;5030689;28;20747;-73
2021/01/27 09:56:28;;;;;;;7.65;5.57;;;;;;;0.23;54.81;100971.28;5044360;28;20037;-71
2021/01/27 09:58:55;;;;;;;7.13;5.25;;;;;;;0.23;55.26;100972.16;5041348;28;20021;-71
2021/01/27 10:01:26;;;;;;;9.60;5.40;;;;;;;1.04;52.98;100973.25;5037991;28;20108;-72
2021/01/27 10:03:54;;;;;;;9.65;5.35;;;;;;;1.04;52.78;100976.69;5043825;28;20032;-71
2021/01/27 10:06:37;;;;;;;9.15;5.55;;;;;;;1.02;52.86;100973.25;5044061;28;20086;-71
2021/01/27 10:09:07;;;;;;;10.82;6.20;;;;;;;0.69;53.94;100972.31;5045034;28;20055;-71
2021/01/27 10:11:35;;;;;;;8.07;4.35;;;;;;;0.65;53.95;100964.59;5041575;28;20055;-72
2021/01/27 10:14:06;;;;;;;7.43;4.90;;;;;;;0.64;53.64;100965.44;5039843;28;20714;-71
2021/01/27 10:16:32;;;;;;;7.90;4.45;;;;;;;1.08;52.80;100957.81;5040504;28;20037;-71
2021/01/27 10:19:06;;;;;;;8.85;5.28;;;;;;;1.04;53.12;100961.22;5040288;28;20057;-71
2021/01/27 10:21:42;;;;;;;7.78;4.20;;;;;;;1.04;53.64;100953.50;5053874;28;20052;-72
2021/01/27 10:24:08;;;;;;;6.47;4.55;;;;;;;1.19;52.78;100957.78;5037271;28;20107;-72
2021/01/27 10:26:41;;;;;;;5.75;4.55;;;;;;;1.49;51.92;100941.50;5038905;28;20862;-72
2021/01/27 10:29:15;;;;;;;7.25;4.47;;;;;;;1.26;52.74;100948.34;5050032;28;20029;-74
2021/01/27 10:31:43;;;;;;;7.85;5.03;;;;;;;0.59;54.15;100939.72;5043340;28;20037;-73
2021/01/27 10:34:08;;;;;;;5.97;5.38;;;;;;;0.63;53.77;100944.00;5042400;28;20025;-73
2021/01/27 10:36:42;;;;;;;6.60;4.95;;;;;;;1.03;53.02;100951.78;5021856;28;20028;-73
2021/01/27 10:39:22;;;;;;;9.18;4.97;;;;;;;0.95;53.25;100947.47;5024553;28;20055;-72
2021/01/27 10:41:52;;;;;;;6.93;4.60;;;;;;;0.95;53.41;100944.91;5040948;28;20116;-73
2021/01/27 10:44:30;;;;;;;7.57;4.47;;;;;;;1.09;52.95;100936.34;5043592;28;20735;-72
2021/01/27 10:47:08;;;;;;;6.70;4.85;;;;;;;1.04;52.45;100932.91;5042941;28;20025;-72
2021/01/27 10:49:39;;;;;;;8.48;4.57;;;;;;;0.69;53.40;100931.16;5043307;28;20036;-73
2021/01/27 10:52:06;;;;;;;11.47;5.60;;;;;;;1.08;53.08;100929.50;5022195;28;20041;-73
2021/01/27 10:54:33;;;;;;;7.20;5.03;;;;;;;0.81;53.06;100920.00;5033102;28;20522;-73
2021/01/27 10:56:59;;;;;;;9.10;5.68;;;;;;;0.78;53.47;100909.72;5042229;28;20036;-72
2021/01/27 10:59:25;;;;;;;9.45;5.05;;;;;;;0.94;53.50;100910.59;5044400;28;20521;-72
2021/01/27 11:01:50;;;;;;;8.98;5.70;;;;;;;-0.03;55.85;100906.94;5038961;28;20037;-72
2021/01/27 11:04:16;;;;;;;7.70;5.88;;;;;;;0.41;55.32;100904.53;5043326;28;20037;-72
2021/01/27 11:06:43;;;;;;;10.55;5.93;;;;;;;0.54;54.61;100915.69;5042285;28;20028;-71
2021/01/27 11:09:10;;;;;;;8.73;6.35;;;;;;;0.99;53.58;100914.03;5039155;28;20495;-72
2021/01/27 11:11:36;;;;;;;11.35;6.93;;;;;;;1.10;53.75;100914.91;5022067;28;20632;-73
2021/01/27 11:14:06;;;;;;;12.40;7.05;;;;;;;1.38;52.81;100909.72;5038435;28;20032;-72
2021/01/27 11:16:32;;;;;;;11.95;6.80;;;;;;;0.86;53.39;100902.88;5043750;28;20112;-73
2021/01/27 11:18:58;;;;;;;11.45;7.60;;;;;;;0.74;53.62;100897.72;5036285;28;20876;-71
2021/01/27 11:21:25;;;;;;;12.55;7.63;;;;;;;0.77;53.64;100900.31;5040026;28;20045;-72
2021/01/27 11:23:51;;;;;;;12.18;7.68;;;;;;;1.11;53.20;100897.72;5025394;28;20033;-72
2021/01/27 11:26:20;;;;;;;13.55;8.60;;;;;;;0.52;54.48;100896.81;5025475;28;20025;-72
2021/01/27 11:28:49;;;;;;;14.73;9.48;;;;;;;1.11;53.41;100898.59;5026226;28;20033;-72
2021/01/27 11:31:16;;;;;;;14.80;9.30;;;;;;;-0.09;56.08;100906.91;5025849;28;20036;-71
2021/01/27 11:33:44;;;;;;;14.68;9.63;;;;;;;0.76;54.42;100901.13;5053440;28;20475;-72
2021/01/27 11:36:10;;;;;;;14.45;9.30;;;;;;;1.19;53.07;100896.00;5036781;28;20033;-72
2021/01/27 11:38:36;;;;;;;13.90;9.25;;;;;;;0.99;53.40;100893.47;5044201;28;20103;-72
2021/01/27 11:41:02;;;;;;;15.77;9.40;;;;;;;0.34;54.91;100892.47;5041644;28;20119;-72
2021/01/27 11:43:29;;;;;;;15.25;8.68;;;;;;;0.78;53.78;100889.13;5038417;28;20033;-72
2021/01/27 11:45:54;;;;;;;13.52;8.73;;;;;;;0.74;53.83;100892.56;5042822;28;20075;-72
2021/01/27 11:48:20;;;;;;;14.60;10.52;;;;;;;1.02;53.36;100877.16;5026178;28;20591;-72
2021/01/27 11:50:45;;;;;;;15.45;9.57;;;;;;;0.95;53.91;100871.16;5033307;28;20546;-74
2021/01/27 11:53:11;;;;;;;16.63;10.45;;;;;;;0.65;54.52;100864.25;5043935;28;20449;-74